createdAt,value
2022-11-27T00:00:47.993Z,-0.26
2022-11-27T00:03:14.956Z,-0.26
2022-11-27T00:05:41.770Z,-0.24
2022-11-27T00:08:08.603Z,-0.23
2022-11-27T00:10:35.572Z,-0.23
2022-11-27T00:13:02.291Z,-0.24
2022-11-27T00:15:28.956Z,-0.24
2022-11-27T00:17:55.632Z,-0.24
2022-11-27T00:20:26.093Z,-0.23
2022-11-27T00:22:55.240Z,-0.21
2022-11-27T00:25:21.972Z,-0.20
2022-11-27T00:27:48.703Z,-0.20
2022-11-27T00:30:15.482Z,-0.22
2022-11-27T00:32:42.255Z,-0.24
2022-11-27T00:35:09.933Z,-0.23
2022-11-27T00:37:36.689Z,-0.24
2022-11-27T00:40:03.454Z,-0.24
2022-11-27T00:42:30.251Z,-0.25
2022-11-27T00:44:56.903Z,-0.24
2022-11-27T00:47:23.636Z,-0.26
2022-11-27T00:49:50.351Z,-0.26
2022-11-27T00:52:17.036Z,-0.25
2022-11-27T00:54:43.764Z,-0.26
2022-11-27T00:57:10.477Z,-0.28
2022-11-27T00:59:37.253Z,-0.28
2022-11-27T01:02:04.125Z,-0.29
2022-11-27T01:04:30.876Z,-0.31
2022-11-27T01:06:57.586Z,-0.33
2022-11-27T01:09:24.428Z,-0.34
2022-11-27T01:11:51.084Z,-0.33
2022-11-27T01:14:18.521Z,-0.32
2022-11-27T01:16:45.326Z,-0.33
2022-11-27T01:19:12.516Z,-0.36
2022-11-27T01:24:26.348Z,-0.35
2022-11-27T01:26:53.208Z,-0.37
2022-11-27T01:29:19.834Z,-0.37
2022-11-27T01:31:46.637Z,-0.36
2022-11-27T01:34:15.884Z,-0.34
2022-11-27T01:36:42.754Z,-0.34
2022-11-27T01:39:10.474Z,-0.36
2022-11-27T01:41:39.930Z,-0.36
2022-11-27T01:44:25.079Z,-0.37
2022-11-27T01:46:56.625Z,-0.36
2022-11-27T01:49:32.500Z,-0.36
2022-11-27T01:52:00.949Z,-0.39
2022-11-27T01:54:30.701Z,-0.40
2022-11-27T01:57:06.942Z,-0.49
2022-11-27T01:59:33.786Z,-0.42
2022-11-27T02:02:00.803Z,-0.43
2022-11-27T02:04:27.558Z,-0.42
2022-11-27T02:06:55.379Z,-0.42
2022-11-27T02:09:22.108Z,-0.41
2022-11-27T02:12:13.409Z,-0.39
2022-11-27T02:14:46.280Z,-0.37
2022-11-27T02:17:22.117Z,-0.37
2022-11-27T02:20:12.006Z,-0.37
2022-11-27T02:22:57.584Z,-0.36
2022-11-27T02:25:46.214Z,-0.38
2022-11-27T02:28:35.092Z,-0.42
2022-11-27T02:31:18.763Z,-0.40
2022-11-27T02:33:47.421Z,-0.41
2022-11-27T02:36:15.348Z,-0.40
2022-11-27T02:38:48.013Z,-0.41
2022-11-27T02:41:24.995Z,-0.42
2022-11-27T02:43:51.761Z,-0.41
2022-11-27T02:46:18.974Z,-0.44
2022-11-27T02:48:50.699Z,-0.44
2022-11-27T02:51:19.614Z,-0.45
2022-11-27T02:53:58.116Z,-0.47
2022-11-27T02:56:26.853Z,-0.49
2022-11-27T02:58:55.677Z,-0.49
2022-11-27T03:01:23.409Z,-0.49
2022-11-27T03:03:53.000Z,-0.49
2022-11-27T03:06:23.514Z,-0.48
2022-11-27T03:09:03.139Z,-0.45
2022-11-27T03:11:32.848Z,-0.44
2022-11-27T03:14:01.380Z,-0.43
2022-11-27T03:16:52.901Z,-0.43
2022-11-27T03:19:20.475Z,-0.43
2022-11-27T03:21:50.636Z,-0.44
2022-11-27T03:24:17.523Z,-0.44
2022-11-27T03:26:44.162Z,-0.45
2022-11-27T03:29:13.062Z,-0.48
2022-11-27T03:31:40.120Z,-0.42
2022-11-27T03:34:06.992Z,-0.44
2022-11-27T03:36:33.691Z,-0.37
2022-11-27T03:39:00.383Z,-0.36
2022-11-27T03:41:45.905Z,-0.38
2022-11-27T03:44:15.661Z,-0.40
2022-11-27T03:46:59.395Z,-0.41
2022-11-27T03:49:50.060Z,-0.42
2022-11-27T03:52:50.854Z,-0.44
2022-11-27T03:55:21.240Z,-0.44
2022-11-27T03:58:12.627Z,-0.44
2022-11-27T04:00:42.597Z,-0.44
2022-11-27T04:03:10.832Z,-0.44
2022-11-27T04:05:37.776Z,-0.45
2022-11-27T04:08:04.717Z,-0.45
2022-11-27T04:10:31.444Z,-0.43
2022-11-27T04:12:58.135Z,-0.41
2022-11-27T04:15:24.875Z,-0.41
2022-11-27T04:17:51.597Z,-0.40
2022-11-27T04:20:18.393Z,-0.39
2022-11-27T04:22:45.085Z,-0.38
2022-11-27T04:25:11.805Z,-0.38
2022-11-27T04:27:38.547Z,-0.37
2022-11-27T04:30:05.780Z,-0.36
2022-11-27T04:32:32.517Z,-0.35
2022-11-27T04:34:59.200Z,-0.35
2022-11-27T04:37:25.943Z,-0.34
2022-11-27T04:39:52.702Z,-0.32
2022-11-27T04:42:19.451Z,-0.31
2022-11-27T04:44:46.188Z,-0.30
2022-11-27T04:47:12.793Z,-0.30
2022-11-27T04:49:39.506Z,-0.31
2022-11-27T04:52:06.238Z,-0.37
2022-11-27T04:54:32.966Z,-0.42
2022-11-27T04:56:59.642Z,-0.43
2022-11-27T04:59:26.522Z,-0.45
2022-11-27T05:01:53.287Z,-0.47
2022-11-27T05:04:20.303Z,-0.54
2022-11-27T05:06:47.154Z,-0.48
2022-11-27T05:09:13.810Z,-0.47
2022-11-27T05:11:40.530Z,-0.46
2022-11-27T05:14:20.579Z,-0.47
2022-11-27T05:16:51.333Z,-0.46
2022-11-27T05:19:19.140Z,-0.44
2022-11-27T05:21:46.426Z,-0.44
2022-11-27T05:24:13.292Z,-0.45
2022-11-27T05:26:40.091Z,-0.44
2022-11-27T05:29:07.773Z,-0.44
2022-11-27T05:31:34.666Z,-0.44
2022-11-27T05:34:01.450Z,-0.44
2022-11-27T05:36:28.572Z,-0.45
2022-11-27T05:38:55.366Z,-0.46
2022-11-27T05:41:22.176Z,-0.46
2022-11-27T05:43:48.839Z,-0.45
2022-11-27T05:46:16.986Z,-0.47
2022-11-27T05:48:43.696Z,-0.50
2022-11-27T05:51:10.361Z,-0.51
2022-11-27T05:53:37.273Z,-0.48
2022-11-27T05:56:04.491Z,-0.47
2022-11-27T05:58:31.241Z,-0.46
2022-11-27T06:00:58.042Z,-0.46
2022-11-27T06:03:24.790Z,-0.44
2022-11-27T06:05:51.808Z,-0.43
2022-11-27T06:08:19.563Z,-0.43
2022-11-27T06:10:46.937Z,-0.43
2022-11-27T06:13:13.699Z,-0.45
2022-11-27T06:15:40.372Z,-0.45
2022-11-27T06:18:07.124Z,-0.46
2022-11-27T06:20:33.807Z,-0.45
2022-11-27T06:23:00.507Z,-0.44
2022-11-27T06:25:27.201Z,-0.45
2022-11-27T06:27:53.903Z,-0.48
2022-11-27T06:30:20.781Z,-0.47
2022-11-27T06:32:47.539Z,-0.45
2022-11-27T06:35:14.430Z,-0.44
2022-11-27T06:37:41.055Z,-0.40
2022-11-27T06:40:08.497Z,-0.37
2022-11-27T06:42:35.240Z,-0.37
2022-11-27T06:45:01.933Z,-0.36
2022-11-27T06:47:28.611Z,-0.33
2022-11-27T06:49:55.305Z,-0.34
2022-11-27T06:52:22.060Z,-0.33
2022-11-27T06:54:48.695Z,-0.32
2022-11-27T06:57:15.408Z,-0.29
2022-11-27T06:59:42.172Z,-0.30
2022-11-27T07:02:13.657Z,-0.32
2022-11-27T07:04:40.685Z,-0.35
2022-11-27T07:07:07.656Z,-0.37
2022-11-27T07:09:34.336Z,-0.34
2022-11-27T07:12:01.048Z,-0.29
2022-11-27T07:14:27.804Z,-0.26
2022-11-27T07:16:54.650Z,-0.24
2022-11-27T07:19:21.450Z,-0.24
2022-11-27T07:21:48.200Z,-0.25
2022-11-27T07:24:14.970Z,-0.24
2022-11-27T07:26:41.770Z,-0.26
2022-11-27T07:29:08.428Z,-0.27
2022-11-27T07:31:35.294Z,-0.27
2022-11-27T07:34:02.086Z,-0.26
2022-11-27T07:36:30.201Z,-0.23
2022-11-27T07:38:57.985Z,-0.23
2022-11-27T07:41:29.165Z,-0.23
2022-11-27T07:43:59.305Z,-0.21
2022-11-27T07:46:26.018Z,-0.22
2022-11-27T07:48:53.133Z,-0.22
2022-11-27T07:51:20.561Z,-0.21
2022-11-27T07:53:47.334Z,-0.18
2022-11-27T07:56:14.918Z,-0.16
2022-11-27T07:58:41.670Z,-0.14
2022-11-27T08:01:16.336Z,-0.14
2022-11-27T08:03:46.093Z,-0.14
2022-11-27T08:06:20.399Z,-0.13
2022-11-27T08:08:47.759Z,-0.12
2022-11-27T08:11:16.420Z,-0.10
2022-11-27T08:13:43.147Z,-0.07
2022-11-27T08:16:09.993Z,-0.06
2022-11-27T08:18:36.655Z,-0.03
2022-11-27T08:21:03.489Z,-0.05
2022-11-27T08:23:30.148Z,-0.11
2022-11-27T08:25:56.877Z,-0.11
2022-11-27T08:28:23.618Z,-0.13
2022-11-27T08:31:00.414Z,-0.13
2022-11-27T08:33:27.282Z,-0.15
2022-11-27T08:35:54.370Z,-0.15
2022-11-27T08:38:21.357Z,-0.14
2022-11-27T08:41:01.073Z,-0.13
2022-11-27T08:43:27.923Z,-0.13
2022-11-27T08:45:54.662Z,-0.13
2022-11-27T08:48:21.549Z,-0.15
2022-11-27T08:50:48.557Z,-0.16
2022-11-27T08:53:15.624Z,-0.19
2022-11-27T08:55:42.335Z,-0.20
2022-11-27T08:58:09.087Z,-0.22
2022-11-27T09:00:36.453Z,-0.21
2022-11-27T09:03:03.268Z,-0.20
2022-11-27T09:05:30.000Z,-0.19
2022-11-27T09:07:57.015Z,-0.16
2022-11-27T09:10:23.894Z,-0.15
2022-11-27T09:12:50.507Z,-0.13
2022-11-27T09:15:17.401Z,-0.13
2022-11-27T09:17:44.179Z,-0.14
2022-11-27T09:20:11.188Z,-0.15
2022-11-27T09:22:37.914Z,-0.16
2022-11-27T09:25:04.844Z,-0.14
2022-11-27T09:27:31.565Z,-0.14
2022-11-27T09:29:58.711Z,-0.14
2022-11-27T09:32:25.459Z,-0.12
2022-11-27T09:34:52.357Z,-0.10
2022-11-27T09:37:19.071Z,-0.08
2022-11-27T09:39:45.789Z,-0.08
2022-11-27T09:42:15.761Z,-0.08
2022-11-27T09:44:53.933Z,-0.10
2022-11-27T09:47:41.596Z,-0.13
2022-11-27T09:50:19.427Z,-0.13
2022-11-27T09:52:52.621Z,-0.13
2022-11-27T09:55:41.706Z,-0.12
2022-11-27T09:58:43.256Z,-0.13
2022-11-27T20:22:41.563Z,-0.72
2022-11-27T20:25:19.605Z,-0.60
2022-11-27T20:27:46.952Z,-0.58
2022-11-27T20:30:13.985Z,-0.56
2022-11-27T20:32:41.101Z,-0.57
2022-11-27T20:35:09.534Z,-0.59
2022-11-27T20:37:36.334Z,-0.59
2022-11-27T20:40:03.756Z,-0.58
2022-11-27T20:42:30.594Z,-0.57
2022-11-27T20:44:57.346Z,-0.57
2022-11-27T20:47:24.110Z,-0.59
2022-11-27T20:49:51.091Z,-0.54
2022-11-27T20:52:17.971Z,-0.53
2022-11-27T20:54:44.993Z,-0.52
2022-11-27T20:57:14.311Z,-0.53
2022-11-27T20:59:41.732Z,-0.55
2022-11-27T21:02:12.075Z,-0.58
2022-11-27T21:04:38.923Z,-0.59
2022-11-27T21:07:05.748Z,-0.57
2022-11-27T21:09:32.898Z,-0.60
2022-11-27T21:11:59.948Z,-0.61
2022-11-27T21:14:26.909Z,-0.63
2022-11-27T21:16:54.395Z,-0.64
2022-11-27T21:19:22.933Z,-0.62
2022-11-27T21:21:50.527Z,-0.62
2022-11-27T21:24:17.817Z,-0.60
2022-11-27T21:26:44.747Z,-0.59
2022-11-27T21:29:13.560Z,-0.57
2022-11-27T21:31:46.202Z,-0.57
2022-11-27T21:34:13.975Z,-0.58
2022-11-27T21:36:40.973Z,-0.59
2022-11-27T21:39:08.349Z,-0.56
2022-11-27T21:41:35.557Z,-0.56
2022-11-27T21:44:02.833Z,-0.54
2022-11-27T21:46:30.098Z,-0.50
2022-11-27T21:48:58.677Z,-0.45
2022-11-27T21:51:26.629Z,-0.41
2022-11-27T21:53:55.617Z,-0.36
2022-11-27T21:56:23.632Z,-0.32
2022-11-27T21:58:50.575Z,-0.29
2022-11-27T22:01:19.586Z,-0.26
2022-11-27T22:03:54.719Z,-0.20
2022-11-27T22:06:21.859Z,-0.15
2022-11-27T22:08:49.444Z,-0.10
2022-11-27T22:11:18.206Z,-0.06
2022-11-27T22:13:45.117Z,-0.03
2022-11-27T22:16:19.970Z,-0.06
2022-11-27T22:18:47.250Z,-0.13
2022-11-27T22:21:14.098Z,-0.16
2022-11-27T22:23:41.489Z,-0.17
2022-11-27T22:26:09.963Z,-0.18
2022-11-27T22:28:37.336Z,-0.19
2022-11-27T22:31:11.196Z,-0.20
2022-11-27T22:33:39.205Z,-0.21
2022-11-27T22:36:18.192Z,-0.19
2022-11-27T22:38:45.574Z,-0.18
2022-11-27T22:41:12.633Z,-0.17
2022-11-27T22:43:39.345Z,-0.15
2022-11-27T22:46:07.167Z,-0.10
2022-11-27T22:48:34.086Z,-0.05
2022-11-27T22:51:00.749Z,-0.01
2022-11-27T22:53:27.520Z,0.02
2022-11-27T22:55:54.618Z,0.01
2022-11-27T22:58:21.605Z,0.02
2022-11-27T23:00:54.757Z,0.06
2022-11-27T23:03:22.584Z,0.06
2022-11-27T23:05:49.301Z,0.04
2022-11-27T23:08:16.297Z,0.03
2022-11-27T23:10:42.964Z,0.02
2022-11-27T23:13:09.666Z,0.01
2022-11-27T23:15:36.462Z,-0.01
2022-11-27T23:18:03.295Z,-0.05
2022-11-27T23:20:30.016Z,-0.08
2022-11-27T23:22:56.825Z,-0.13
2022-11-27T23:25:23.532Z,-0.17
2022-11-27T23:27:50.239Z,-0.15
2022-11-27T23:30:17.072Z,-0.15
2022-11-27T23:32:46.857Z,-0.13
2022-11-27T23:35:13.567Z,-0.15
2022-11-27T23:37:40.298Z,-0.13
2022-11-27T23:40:07.747Z,-0.12
2022-11-27T23:42:35.150Z,-0.10
2022-11-27T23:45:01.893Z,-0.08
2022-11-27T23:47:28.726Z,-0.08
2022-11-27T23:49:55.335Z,-0.06
2022-11-27T23:52:22.099Z,-0.07
2022-11-27T23:54:48.884Z,-0.08
2022-11-27T23:57:15.525Z,-0.08
2022-11-27T23:59:42.247Z,-0.13
